Time;durP1;ratioP1;P1;durP2;ratioP2;P2;SDS_P1;SDS_P2;PMS_P1;PMS_P2;Temp;Humidity;BMP_temperature;BMP_pressure;BME280_temperature;BME280_humidity;BME280_pressure;Samples;Min_cycle;Max_cycle;Signal;HPM_P1;HPM_P2
2023/12/01 00:01:00;;;;;;;0.63;0.63;;;;;;;;;;5089986;28;20287;-71
2023/12/01 00:03:26;;;;;;;1.50;1.40;;;;;;;;;;5090461;28;20131;-71
2023/12/01 00:05:52;;;;;;;4.80;1.88;;;;;;;;;;5091182;28;20056;-72
2023/12/01 00:08:18;;;;;;;1.55;1.08;;;;;;;;;;5094226;28;20063;-72
2023/12/01 00:10:44;;;;;;;1.52;1.42;;;;;;;;;;5092873;28;20131;-71
2023/12/01 00:13:11;;;;;;;1.92;1.80;;;;;;;;;;5093940;28;20094;-72
2023/12/01 00:15:37;;;;;;;0.88;0.75;;;;;;;;;;5092150;28;20051;-72
2023/12/01 00:18:03;;;;;;;0.95;0.95;;;;;;;;;;5093609;28;20139;-72
2023/12/01 00:20:29;;;;;;;1.67;1.58;;;;;;;;;;5091414;28;20247;-72
2023/12/01 00:22:55;;;;;;;2.20;2.05;;;;;;;;;;5092831;28;20539;-72
2023/12/01 00:25:21;;;;;;;4.57;4.15;;;;;;;;;;5092006;28;20052;-72
2023/12/01 00:27:47;;;;;;;3.85;1.67;;;;;;;;;;5126235;27;20063;-72
2023/12/01 00:30:13;;;;;;;2.17;1.17;;;;;;;;;;5092651;28;20427;-71
2023/12/01 00:32:40;;;;;;;;;;;;;;;;;;5085024;28;20041;-72
2023/12/01 00:35:06;;;;;;;1.10;1.00;;;;;;;;;;5088714;28;19973;-72
2023/12/01 00:37:33;;;;;;;2.33;2.20;;;;;;;;;;5085003;28;20061;-72
2023/12/01 00:39:59;;;;;;;1.17;1.17;;;;;;;;;;5073544;28;20126;-72
2023/12/01 00:42:25;;;;;;;1.95;1.85;;;;;;;;;;5073649;28;20048;-72
2023/12/01 00:44:51;;;;;;;;;;;-1.30;35.00;;;;;;5073588;28;20105;-71
2023/12/01 00:47:17;;;;;;;1.88;1.73;;;;;;;;;;5073533;28;20657;-71
2023/12/01 00:49:44;;;;;;;0.93;0.93;;;;;;;;;;5073464;28;20416;-71
2023/12/01 00:52:10;;;;;;;3.58;1.70;;;;;;;;;;5073729;28;20048;-71
2023/12/01 00:54:36;;;;;;;2.70;2.20;;;;;;;;;;5074160;28;20110;-71
2023/12/01 00:57:02;;;;;;;4.60;1.38;;;;;;;;;;5074126;28;20123;-71
2023/12/01 00:59:28;;;;;;;2.63;1.85;;;;;;;;;;5075107;28;20044;-72
2023/12/01 01:01:54;;;;;;;4.30;2.33;;;;;;;;;;5074020;28;20088;-72
2023/12/01 01:04:20;;;;;;;1.70;1.60;;;;;;;;;;5074134;28;20063;-71
2023/12/01 01:06:46;;;;;;;2.05;1.45;;;;;;;;;;5073507;28;20051;-72
2023/12/01 01:09:12;;;;;;;2.30;1.52;;;;;;;;;;5074218;28;20055;-71
2023/12/01 01:11:38;;;;;;;1.30;0.95;;;;;;;;;;5073896;28;20040;-72
2023/12/01 01:14:04;;;;;;;1.52;0.88;;;;;;;;;;5074465;28;20123;-71
2023/12/01 01:16:30;;;;;;;1.70;1.60;;;;;;;;;;5073308;28;20044;-72
2023/12/01 01:18:56;;;;;;;0.30;0.30;;;;;;;;;;5074667;28;20091;-72
2023/12/01 01:21:23;;;;;;;0.60;0.60;;;;;;;;;;5073387;28;20503;-72
2023/12/01 01:23:49;;;;;;;1.58;1.50;;;;;;;;;;5073720;28;20552;-72
2023/12/01 01:26:15;;;;;;;5.47;1.38;;;;;;;;;;5073495;28;20401;-72
2023/12/01 01:28:41;;;;;;;0.70;0.70;;;;;;;;;;5073546;28;20052;-71
2023/12/01 01:31:07;;;;;;;7.47;6.82;;;;;;;;;;5073039;28;20052;-71
2023/12/01 01:33:34;;;;;;;1.50;1.40;;;;;;;;;;5074701;28;20083;-72
2023/12/01 01:36:00;;;;;;;0.80;0.80;;;;;;;;;;5092511;28;20103;-71
2023/12/01 01:38:26;;;;;;;1.00;0.93;;;;;;;;;;5091721;28;20079;-72
2023/12/01 01:40:53;;;;;;;2.50;1.58;;;;;;;;;;5092553;28;20043;-72
2023/12/01 01:43:20;;;;;;;0.70;0.70;;;;;;;;;;5091913;28;20602;-72
2023/12/01 01:45:46;;;;;;;0.85;0.85;;;;;;;;;;5092216;28;20056;-72
2023/12/01 01:48:12;;;;;;;1.40;1.40;;;;;;;;;;5091865;28;20079;-72
2023/12/01 01:50:38;;;;;;;0.73;0.50;;;;;;;;;;5091860;28;20505;-72
2023/12/01 01:53:04;;;;;;;0.93;0.93;;;;;;;;;;5090893;28;20075;-72
2023/12/01 01:55:30;;;;;;;1.48;1.38;;;;;;;;;;5091886;28;20040;-72
2023/12/01 01:57:56;;;;;;;2.03;1.30;;;;;;;;;;5090512;28;20051;-72
2023/12/01 02:00:23;;;;;;;1.05;1.05;;;;;;;;;;5090889;28;20040;-72
2023/12/01 02:02:49;;;;;;;1.17;1.08;;;;;;;;;;5089856;28;20051;-72
2023/12/01 02:05:15;;;;;;;1.30;1.30;;;;;;;;;;5091488;28;20087;-72
2023/12/01 02:07:41;;;;;;;1.10;1.00;;;;;;;;;;5090270;28;20044;-72
2023/12/01 02:10:15;;;;;;;3.45;1.90;;;;;;;;;;5091663;28;20100;-72
2023/12/01 02:12:41;;;;;;;2.28;1.73;;;;;;;;;;5090397;28;20052;-73
2023/12/01 02:15:10;;;;;;;;;;;-0.40;28.20;;;;;;5091834;28;20075;-73
2023/12/01 02:17:38;;;;;;;1.67;1.58;;;;;;;;;;5088806;28;20317;-73
2023/12/01 02:20:05;;;;;;;9.23;2.72;;;;;;;;;;5090759;28;20048;-73
2023/12/01 02:22:31;;;;;;;1.95;1.65;;;;;;;;;;5089953;28;20063;-73
2023/12/01 02:24:57;;;;;;;2.45;1.52;;;;;;;;;;5091045;28;20391;-72
2023/12/01 02:27:24;;;;;;;2.33;1.90;;;;;;;;;;5089517;28;20484;-74
2023/12/01 02:29:50;;;;;;;4.40;2.50;;;;;;;;;;5089724;28;20055;-74
2023/12/01 02:32:16;;;;;;;2.40;2.20;;;;;;;;;;5083577;28;20055;-74
2023/12/01 02:34:45;;;;;;;2.63;2.03;;;;;;;;;;5071154;28;20424;-74
2023/12/01 02:37:11;;;;;;;9.95;1.48;;;;;;;;;;5070939;28;20055;-74
2023/12/01 02:39:37;;;;;;;3.42;0.77;;;;;;;;;;5071389;28;20050;-74
2023/12/01 02:42:03;;;;;;;2.30;2.08;;;;;;;;;;5103889;27;20048;-75
2023/12/01 02:44:29;;;;;;;3.97;1.77;;;;;;;;;;5083882;28;20391;-74
2023/12/01 02:46:55;;;;;;;1.27;1.23;;;;;;;;;;5084766;28;20396;-74
2023/12/01 02:49:24;;;;;;;2.40;1.58;;;;;;;;;;5070333;28;20447;-76
2023/12/01 02:51:50;;;;;;;2.70;1.75;;;;;;;;;;5090223;28;20129;-75
2023/12/01 02:54:16;;;;;;;2.60;2.40;;;;;;;;;;5090892;28;20480;-77
2023/12/01 02:56:42;;;;;;;3.63;1.80;;;;;;;;;;5089063;28;20040;-76
2023/12/01 02:59:08;;;;;;;2.42;2.22;;;;;;;;;;5091104;28;20134;-76
2023/12/01 03:01:34;;;;;;;3.28;2.08;;;;;;;;;;5069866;28;20049;-76
2023/12/01 03:04:00;;;;;;;2.55;2.35;;;;;;;;;;5070840;28;20060;-77
2023/12/01 03:06:26;;;;;;;2.53;2.20;;;;;;;;;;5070551;28;20053;-77
2023/12/01 03:08:52;;;;;;;1.48;1.20;;;;;;;;;;5071815;28;20083;-74
2023/12/01 03:11:23;;;;;;;3.72;2.28;;;;;;;;;;5072288;28;20048;-77
2023/12/01 03:13:50;;;;;;;1.63;0.82;;;;;;;;;;5071964;28;20045;-77
2023/12/01 03:16:16;;;;;;;8.38;2.05;;;;;;;;;;5071445;28;20045;-78
2023/12/01 03:18:42;;;;;;;;;;;;;;;;;;5071102;28;20480;-77
2023/12/01 03:21:12;;;;;;;5.43;1.52;;;;;;;;;;5071225;28;19973;-78
2023/12/01 03:23:40;;;;;;;3.88;1.42;;;;;;;;;;5070941;28;20515;-78
2023/12/01 03:26:08;;;;;;;3.47;2.00;;;;;;;;;;5071196;28;20055;-77
2023/12/01 03:28:34;;;;;;;3.60;2.40;;;;;;;;;;5070526;28;20114;-79
2023/12/01 03:31:00;;;;;;;5.40;2.05;;;;;;;;;;5071107;28;20051;-78
2023/12/01 03:33:26;;;;;;;;;;;-2.70;24.40;;;;;;5071440;28;20068;-79
2023/12/01 03:35:52;;;;;;;1.67;1.58;;;;;;;;;;5070467;28;20364;-77
2023/12/01 03:38:18;;;;;;;3.20;1.85;;;;;;;;;;5069695;28;20051;-79
2023/12/01 03:40:44;;;;;;;3.22;1.45;;;;;;;;;;5073471;28;20150;-79
2023/12/01 03:43:10;;;;;;;7.18;5.28;;;;;;;;;;5075440;28;20643;-79
2023/12/01 03:45:36;;;;;;;3.55;2.53;;;;;;;;;;5127663;27;20500;-80
2023/12/01 03:48:02;;;;;;;3.15;2.88;;;;;;;;;;5093769;28;20132;-80
2023/12/01 03:50:29;;;;;;;0.93;0.90;;;;;;;;;;5094539;28;20094;-79
2023/12/01 03:52:56;;;;;;;10.50;2.80;;;;;;;;;;5092059;28;20056;-81
2023/12/01 03:55:22;;;;;;;1.23;1.13;;;;;;;;;;5093329;28;20067;-81
2023/12/01 03:57:48;;;;;;;6.95;4.28;;;;;;;;;;5092288;28;20502;-82
2023/12/01 04:00:16;;;;;;;2.13;1.98;;;;;;;;;;5093828;28;20044;-80
2023/12/01 04:02:43;;;;;;;15.10;3.53;;;;;;;;;;5093787;28;20048;-82
2023/12/01 04:05:17;;;;;;;3.47;1.90;;;;;;;;;;5094553;28;20059;-81
2023/12/01 04:07:44;;;;;;;3.42;2.33;;;;;;;;;;5090191;28;20447;-81
2023/12/01 04:10:10;;;;;;;0.98;0.95;;;;;;;;;;5084922;28;20127;-80
2023/12/01 04:12:46;;;;;;;3.00;2.15;;;;;;;;;;5093735;28;20044;-81
2023/12/01 04:15:18;;;;;;;2.05;1.73;;;;;;;;;;5093819;28;20127;-79
2023/12/01 04:17:45;;;;;;;1.83;1.73;;;;;;;;;;5126555;27;20048;-81
2023/12/01 04:20:22;;;;;;;3.53;2.78;;;;;;;;;;5080323;28;20056;-78
2023/12/01 04:22:56;;;;;;;7.90;3.15;;;;;;;;;;5062088;28;20048;-81
2023/12/01 04:25:22;;;;;;;7.47;1.83;;;;;;;;;;5073775;28;20076;-80
2023/12/01 04:27:49;;;;;;;1.52;1.38;;;;;;;;;;5073743;28;20045;-80
2023/12/01 04:30:15;;;;;;;4.75;2.17;;;;;;;;;;5073412;28;20516;-80
2023/12/01 04:32:42;;;;;;;3.10;1.63;;;;;;;;;;5074072;28;20159;-79
2023/12/01 04:35:10;;;;;;;1.30;1.05;;;;;;;;;;5073181;28;20114;-78
2023/12/01 04:37:36;;;;;;;2.03;1.92;;;;;;;;;;5073581;28;20404;-78
2023/12/01 04:40:03;;;;;;;2.13;1.55;;;;;;;;;;5073512;28;20089;-79
2023/12/01 04:42:29;;;;;;;7.93;3.20;;;;;;;;;;5081797;28;20040;-79
2023/12/01 04:44:55;;;;;;;2.67;2.47;;;;;;;;;;5077383;28;20053;-78
2023/12/01 04:47:21;;;;;;;1.88;1.77;;;;;;;;;;5073580;28;20076;-78
2023/12/01 04:49:47;;;;;;;8.98;3.83;;;;;;;;;;5073037;28;20153;-78
2023/12/01 04:52:13;;;;;;;1.38;1.27;;;;;;;;;;5073036;28;20409;-77
2023/12/01 04:54:39;;;;;;;2.10;1.23;;;;;;;;;;5073440;28;20534;-77
2023/12/01 04:57:06;;;;;;;2.47;2.33;;;;;;;;;;5073644;28;20573;-77
2023/12/01 04:59:32;;;;;;;2.65;2.47;;;;;;;;;;5072373;28;21141;-76
2023/12/01 05:01:58;;;;;;;2.13;1.92;;;;;;;;;;5073367;28;20515;-76
2023/12/01 05:04:24;;;;;;;10.35;3.28;;;;;;;;;;5072433;28;20068;-76
2023/12/01 05:06:50;;;;;;;;;;;;;;;;;;5073315;28;20079;-75
2023/12/01 05:09:16;;;;;;;3.13;2.33;;;;;;;;;;5075659;28;19928;-76
2023/12/01 05:11:46;;;;;;;1.85;1.25;;;;;;;;;;5092833;28;20048;-76
2023/12/01 05:14:13;;;;;;;3.15;2.47;;;;;;;;;;5091011;28;20040;-76
2023/12/01 05:16:41;;;;;;;1.90;1.67;;;;;;;;;;5092875;28;20048;-75
2023/12/01 05:19:07;;;;;;;3.38;1.13;;;;;;;;;;5092033;28;20051;-75
2023/12/01 05:21:34;;;;;;;2.03;1.88;;;;;;;;;;5092534;28;20078;-75
2023/12/01 05:24:00;;;;;;;1.60;1.13;;;;;;;;;;5090498;28;20040;-75
2023/12/01 05:26:26;;;;;;;2.30;2.00;;;;;;;;;;5092482;28;20071;-75
2023/12/01 05:28:52;;;;;;;1.13;1.13;;;;;;;;;;5090698;28;20047;-75
2023/12/01 05:31:18;;;;;;;4.05;1.73;;;;;;;;;;5091867;28;20097;-75
2023/12/01 05:33:46;;;;;;;4.25;3.67;;;;;;;;;;5078718;28;20036;-75
2023/12/01 05:36:16;;;;;;;2.05;1.50;;;;;;;;;;5081400;28;20489;-74
2023/12/01 05:38:44;;;;;;;3.17;2.08;;;;;;;;;;5072443;28;20052;-74
2023/12/01 05:41:10;;;;;;;2.05;1.55;;;;;;;;;;5072532;28;20048;-74
2023/12/01 05:43:39;;;;;;;3.92;2.13;;;;;;;;;;5073123;28;20045;-74
2023/12/01 05:46:06;;;;;;;4.47;3.47;;;;;;;;;;5072859;28;20052;-74
2023/12/01 05:48:33;;;;;;;2.95;2.65;;;;;;;;;;5072528;28;20087;-73
2023/12/01 05:50:59;;;;;;;6.80;3.22;;;;;;;;;;5072759;28;20052;-74
2023/12/01 05:53:25;;;;;;;1.85;1.75;;;;;;;;;;5073019;28;20120;-73
2023/12/01 05:55:51;;;;;;;2.88;1.73;;;;;;;;;;5072379;28;20464;-73
2023/12/01 05:58:17;;;;;;;11.20;5.05;;;;;;;;;;5072096;28;20606;-74
2023/12/01 06:00:43;;;;;;;2.45;2.25;;;;;;;;;;5072182;28;20052;-74
2023/12/01 06:03:10;;;;;;;7.32;1.50;;;;;;;;;;5069571;28;20051;-73
2023/12/01 06:05:37;;;;;;;2.70;2.00;;;;;;;;;;5072284;28;20527;-73
2023/12/01 06:08:03;;;;;;;3.65;2.40;;;;;;;;;;5071751;28;20055;-73
2023/12/01 06:10:31;;;;;;;4.15;1.75;;;;;;;;;;5070519;28;20071;-73
2023/12/01 06:12:58;;;;;;;1.70;1.60;;;;;;;;;;5071760;28;20041;-73
2023/12/01 06:15:29;;;;;;;4.13;2.20;;;;;;;;;;5071517;28;20067;-73
2023/12/01 06:17:56;;;;;;;2.00;1.52;;;;;;;;;;5079690;28;20089;-73
2023/12/01 06:20:22;;;;;;;2.90;1.88;;;;;;;;;;5089798;28;20058;-73
2023/12/01 06:22:49;;;;;;;;;;;-3.70;22.10;;;;;;5070885;28;20044;-73
2023/12/01 06:25:15;;;;;;;2.10;1.25;;;;;;;;;;5071796;28;20450;-73
2023/12/01 06:27:42;;;;;;;1.70;1.60;;;;;;;;;;5071648;28;20384;-73
2023/12/01 06:30:12;;;;;;;2.67;2.30;;;;;;;;;;5071570;28;20403;-73
2023/12/01 06:32:47;;;;;;;2.20;1.25;;;;;;;;;;5072513;28;20110;-73
2023/12/01 06:35:14;;;;;;;3.78;1.70;;;;;;;;;;5087147;28;20054;-73
2023/12/01 06:37:40;;;;;;;3.83;2.28;;;;;;;;;;5091089;28;20048;-73
2023/12/01 06:40:15;;;;;;;4.03;2.45;;;;;;;;;;5090524;28;20040;-73
2023/12/01 06:42:54;;;;;;;1.45;1.35;;;;;;;;;;5090558;28;20048;-73
2023/12/01 06:45:22;;;;;;;2.78;2.20;;;;;;;;;;5090643;28;20044;-73
2023/12/01 06:47:49;;;;;;;2.03;1.05;;;;;;;;;;5078481;28;20110;-73
2023/12/01 06:50:15;;;;;;;3.05;2.30;;;;;;;;;;5071028;28;20063;-73
2023/12/01 06:52:43;;;;;;;9.40;3.50;;;;;;;;;;5071232;28;20037;-73
2023/12/01 06:55:09;;;;;;;4.55;1.92;;;;;;;;;;5090900;28;20044;-73
2023/12/01 06:57:37;;;;;;;1.65;1.42;;;;;;;;;;5089822;28;20087;-73
2023/12/01 07:00:07;;;;;;;4.18;2.00;;;;;;;;;;5064882;28;20126;-74
2023/12/01 07:02:34;;;;;;;7.30;1.92;;;;;;;;;;5090128;28;20070;-74
2023/12/01 07:05:00;;;;;;;9.57;3.45;;;;;;;;;;5090606;28;20060;-74
2023/12/01 07:07:30;;;;;;;3.63;2.20;;;;;;;;;;5077065;28;20079;-74
2023/12/01 07:09:58;;;;;;;4.35;2.38;;;;;;;;;;5091114;28;20415;-74
2023/12/01 07:12:24;;;;;;;2.55;2.25;;;;;;;;;;5090114;28;20083;-74
2023/12/01 07:14:50;;;;;;;8.52;3.20;;;;;;;;;;5089371;28;20503;-74
2023/12/01 07:17:16;;;;;;;3.60;1.50;;;;;;;;;;5089873;28;20662;-74
2023/12/01 07:19:42;;;;;;;9.00;2.60;;;;;;;;;;5089378;28;20086;-74
2023/12/01 07:22:10;;;;;;;4.90;2.33;;;;;;;;;;5089862;28;20515;-74
2023/12/01 07:24:36;;;;;;;0.77;0.77;;;;;;;;;;5090391;28;20079;-74
2023/12/01 07:27:02;;;;;;;3.25;2.67;;;;;;;;;;5088905;28;20048;-74
2023/12/01 07:29:29;;;;;;;4.57;4.15;;;;;;;;;;5090537;28;20050;-75
2023/12/01 07:31:55;;;;;;;1.70;1.65;;;;;;;;;;5087740;28;20043;-75
2023/12/01 07:34:21;;;;;;;7.47;3.38;;;;;;;;;;5103379;28;20075;-75
2023/12/01 07:36:47;;;;;;;1.80;1.70;;;;;;;;;;5070670;28;20050;-75
2023/12/01 07:39:13;;;;;;;1.40;1.30;;;;;;;;;;5070566;28;20059;-74
2023/12/01 07:41:39;;;;;;;3.28;2.40;;;;;;;;;;5071173;28;20083;-74
2023/12/01 07:44:05;;;;;;;3.88;1.83;;;;;;;;;;5070134;28;20063;-75
2023/12/01 07:46:32;;;;;;;4.10;2.35;;;;;;;;;;5073054;28;20056;-75
2023/12/01 07:49:01;;;;;;;3.28;2.58;;;;;;;;;;5090559;28;20080;-75
2023/12/01 07:51:27;;;;;;;5.25;2.13;;;;;;;;;;5073530;28;20045;-75
2023/12/01 07:53:53;;;;;;;1.75;1.45;;;;;;;;;;5079766;28;20494;-74
2023/12/01 07:56:23;;;;;;;2.72;2.45;;;;;;;;;;5086372;28;20055;-75
2023/12/01 07:58:50;;;;;;;2.10;1.90;;;;;;;;;;5070550;28;20044;-75
2023/12/01 08:01:16;;;;;;;1.92;1.73;;;;;;;;;;5070392;28;20048;-75
2023/12/01 08:03:48;;;;;;;3.80;2.45;;;;;;;;;;5069458;28;20057;-75
2023/12/01 08:06:14;;;;;;;4.00;2.45;;;;;;;;;;5070485;28;20048;-75
2023/12/01 08:08:41;;;;;;;3.30;1.40;;;;;;;;;;5070384;28;20130;-75
2023/12/01 08:11:08;;;;;;;5.38;3.75;;;;;;;;;;5075071;28;20044;-75
2023/12/01 08:13:34;;;;;;;2.60;1.80;;;;;;;;;;5088860;28;20060;-75
2023/12/01 08:16:00;;;;;;;4.07;1.80;;;;;;;;;;5089743;28;20109;-75
2023/12/01 08:18:26;;;;;;;3.25;1.75;;;;;;;;;;5089831;28;20135;-75
2023/12/01 08:20:53;;;;;;;4.13;2.60;;;;;;;;;;5089660;28;20044;-75
2023/12/01 08:23:19;;;;;;;5.15;1.65;;;;;;;;;;5090157;28;20052;-75
2023/12/01 08:25:46;;;;;;;1.73;1.63;;;;;;;;;;5089702;28;20044;-75
2023/12/01 08:28:12;;;;;;;1.85;1.75;;;;;;;;;;5080257;28;20053;-75
2023/12/01 08:30:38;;;;;;;2.25;2.05;;;;;;;;;;5073789;28;20515;-74
2023/12/01 08:33:05;;;;;;;2.92;1.20;;;;;;;;;;5073840;28;20056;-74
2023/12/01 08:35:31;;;;;;;1.63;1.52;;;;;;;;;;5091652;28;20071;-74
2023/12/01 08:37:57;;;;;;;2.40;1.98;;;;;;;;;;5081651;28;20048;-74
2023/12/01 08:40:24;;;;;;;9.85;3.13;;;;;;;;;;5073866;28;20874;-75
2023/12/01 08:42:53;;;;;;;1.40;1.30;;;;;;;;;;5072769;28;20132;-75
2023/12/01 08:45:19;;;;;;;3.95;2.45;;;;;;;;;;5074811;28;20048;-74
2023/12/01 08:47:46;;;;;;;3.95;1.77;;;;;;;;;;5073683;28;20056;-74
2023/12/01 08:50:12;;;;;;;1.77;1.27;;;;;;;;;;5073967;28;20076;-75
2023/12/01 08:52:38;;;;;;;6.47;1.98;;;;;;;;;;5072794;28;20060;-74
2023/12/01 08:55:05;;;;;;;3.65;2.25;;;;;;;;;;5074491;28;20052;-74
2023/12/01 08:57:32;;;;;;;2.53;2.10;;;;;;;;;;5073874;28;20131;-74
2023/12/01 08:59:59;;;;;;;5.53;1.27;;;;;;;;;;5074050;28;20124;-74
2023/12/01 09:02:25;;;;;;;1.98;1.67;;;;;;;;;;5074354;28;20058;-75
2023/12/01 09:04:52;;;;;;;1.92;1.58;;;;;;;;;;5075030;28;20053;-74
2023/12/01 09:07:18;;;;;;;1.90;1.73;;;;;;;;;;5074033;28;20123;-75
2023/12/01 09:09:44;;;;;;;3.65;1.73;;;;;;;;;;5073788;28;20070;-75
2023/12/01 09:12:10;;;;;;;1.08;1.05;;;;;;;;;;5073989;28;20056;-75
2023/12/01 09:14:36;;;;;;;1.33;1.23;;;;;;;;;;5106339;27;20067;-75
2023/12/01 09:17:02;;;;;;;2.78;1.83;;;;;;;;;;5072379;28;20044;-74
2023/12/01 09:19:28;;;;;;;1.92;1.35;;;;;;;;;;5071081;28;21087;-74
2023/12/01 09:21:54;;;;;;;2.35;1.33;;;;;;;;;;5064075;28;20504;-75
2023/12/01 09:24:20;;;;;;;2.67;1.27;;;;;;;;;;5078303;28;20041;-73
2023/12/01 09:26:46;;;;;;;4.90;1.38;;;;;;;;;;5075289;28;20050;-74
2023/12/01 09:29:12;;;;;;;0.38;0.38;;;;;;;;;;5077382;28;20070;-74
2023/12/01 09:31:48;;;;;;;4.20;2.03;;;;;;;;;;5075130;28;20075;-76
2023/12/01 09:34:14;;;;;;;0.60;0.60;;;;;;;;;;5060446;28;20036;-74
2023/12/01 09:36:43;;;;;;;0.40;0.40;;;;;;;;;;5085447;28;20093;-74
2023/12/01 09:39:10;;;;;;;4.50;2.05;;;;;;;;;;5072074;28;20051;-73
2023/12/01 09:41:36;;;;;;;;;;;-0.10;14.00;;;;;;5072694;28;20093;-69
2023/12/01 09:44:03;;;;;;;1.20;1.00;;;;;;;;;;5072030;28;20426;-69
2023/12/01 09:46:35;;;;;;;1.20;1.10;;;;;;;;;;5073934;28;20076;-69
2023/12/01 09:49:05;;;;;;;0.85;0.85;;;;;;;;;;5091343;28;20047;-69
2023/12/01 09:51:34;;;;;;;2.38;2.25;;;;;;;;;;5091350;28;20503;-68
2023/12/01 09:54:01;;;;;;;1.17;1.17;;;;;;;;;;5080297;28;20499;-71
2023/12/01 09:56:27;;;;;;;3.92;2.42;;;;;;;;;;5071772;28;20053;-70
2023/12/01 09:58:54;;;;;;;0.75;0.75;;;;;;;;;;5082181;28;20048;-72
2023/12/01 10:01:21;;;;;;;4.60;2.50;;;;;;;;;;5084744;28;20078;-70
2023/12/01 10:03:47;;;;;;;2.28;1.42;;;;;;;;;;5070735;28;20066;-70
2023/12/01 10:06:13;;;;;;;1.50;1.40;;;;;;;;;;5084941;28;20051;-69
2023/12/01 10:08:40;;;;;;;2.67;2.45;;;;;;;;;;5085823;28;20044;-68
2023/12/01 10:11:24;;;;;;;0.30;0.30;;;0.40;1.00;;;;;;5086205;28;20541;-70
2023/12/01 10:13:51;;;;;;;1.00;1.00;;;;;;;;;;5077425;28;20045;-70
2023/12/01 10:16:18;;;;;;;0.55;0.55;;;;;;;;;;5086277;28;20055;-70
2023/12/01 10:19:00;;;;;;;1.90;1.77;;;;;;;;;;5063997;28;20045;-68
2023/12/01 10:21:41;;;;;;;1.50;1.40;;;;;;;;;;5072266;28;20056;-68
2023/12/01 10:24:17;;;;;;;1.90;1.25;;;;;;;;;;5071844;28;20123;-72
2023/12/01 10:26:46;;;;;;;4.18;1.88;;;;;;;;;;5070760;28;20500;-68
2023/12/01 10:29:31;;;;;;;0.65;0.65;;;;;;;;;;5062943;28;20046;-68
2023/12/01 10:31:58;;;;;;;2.30;1.45;;;;;;;;;;5070716;28;20078;-68
2023/12/01 10:34:25;;;;;;;0.68;0.68;;;;;;;;;;5079834;28;20111;-69
2023/12/01 10:36:54;;;;;;;1.60;1.50;;;;;;;;;;5080511;28;20055;-68
2023/12/01 10:39:24;;;;;;;0.88;0.88;;;;;;;;;;5090227;28;20044;-68
2023/12/01 10:41:50;;;;;;;1.95;1.50;;;;;;;;;;5078217;28;20049;-68
2023/12/01 10:44:16;;;;;;;;;;;;;;;;;;5070900;28;20057;-68
2023/12/01 10:46:45;;;;;;;2.08;1.98;;;;;;;;;;5073575;28;19920;-67
2023/12/01 10:49:13;;;;;;;3.53;3.13;;;;;;;;;;5082400;28;20043;-70
2023/12/01 10:51:41;;;;;;;2.92;1.35;;;;;;;;;;5084956;28;20490;-70
2023/12/01 10:54:08;;;;;;;2.17;0.93;;;;;;;;;;5077792;28;20052;-68
2023/12/01 10:56:48;;;;;;;1.60;1.50;;;0.70;1.00;;;;;;5070297;28;20059;-69
2023/12/01 10:59:18;;;;;;;2.42;1.88;;;;;;;;;;5076675;28;20492;-71
2023/12/01 11:01:45;;;;;;;1.10;0.80;;;;;;;;;;5085966;28;20079;-69
2023/12/01 11:04:12;;;;;;;0.73;0.73;;;;;;;;;;5082574;28;20087;-72
2023/12/01 11:06:46;;;;;;;;;;;0.10;1.00;;;;;;5070527;28;20049;-70
2023/12/01 11:09:52;;;;;;;0.93;0.93;;;-0.40;1.00;;;;;;5058726;28;19928;-69
2023/12/01 11:12:25;;;;;;;0.93;0.93;;;;;;;;;;5074832;28;20071;-67
2023/12/01 11:14:51;;;;;;;1.15;1.15;;;;;;;;;;5088736;28;20052;-68
2023/12/01 11:17:18;;;;;;;1.75;1.65;;;;;;;;;;5086969;28;20052;-68
2023/12/01 11:19:44;;;;;;;1.90;1.73;;;;;;;;;;5088943;28;20457;-67
2023/12/01 11:22:27;;;;;;;1.20;1.10;;;;;;;;;;5086590;28;20044;-69
2023/12/01 11:24:54;;;;;;;1.00;0.85;;;;;;;;;;5088642;28;20123;-68
2023/12/01 11:27:20;;;;;;;3.20;1.70;;;;;;;;;;5087738;28;20051;-67
2023/12/01 11:30:07;;;;;;;1.00;0.88;;;;;;;;;;5089124;28;20052;-67
2023/12/01 11:32:34;;;;;;;3.63;1.25;;;;;;;;;;5061994;28;20381;-67
2023/12/01 11:35:08;;;;;;;2.35;1.92;;;;;;;;;;5084751;28;20059;-67
2023/12/01 11:37:53;;;;;;;1.05;1.05;;;;;;;;;;5090627;28;20059;-68
2023/12/01 11:40:20;;;;;;;1.45;1.35;;;;;;;;;;5070666;28;20408;-69
2023/12/01 11:42:50;;;;;;;0.82;0.82;;;;;;;;;;5065727;28;20057;-74
2023/12/01 11:45:16;;;;;;;1.30;1.20;;;;;;;;;;5074825;28;20044;-72
2023/12/01 11:47:42;;;;;;;1.98;1.88;;;;;;;;;;5090169;28;20130;-72
2023/12/01 11:50:12;;;;;;;0.75;0.75;;;;;;;;;;5061445;28;20156;-70
2023/12/01 11:52:38;;;;;;;0.70;0.70;;;;;;;;;;5057579;28;20052;-71
2023/12/01 11:55:15;;;;;;;3.58;2.15;;;;;;;;;;5086347;28;20048;-70
2023/12/01 11:57:44;;;;;;;1.58;1.48;;;;;;;;;;5079645;28;20328;-71
2023/12/01 12:00:10;;;;;;;2.35;1.00;;;;;;;;;;5079605;28;20143;-67
2023/12/01 12:02:37;;;;;;;0.85;0.85;;;;;;;;;;5055660;28;20110;-74
2023/12/01 12:05:05;;;;;;;1.08;0.93;;;;;;;;;;5096118;27;20123;-70
2023/12/01 12:07:32;;;;;;;2.17;1.55;;;;;;;;;;5076611;28;20149;-71
2023/12/01 12:09:58;;;;;;;0.50;0.50;;;;;;;;;;5066603;28;20045;-71
2023/12/01 12:12:24;;;;;;;1.65;1.55;;;;;;;;;;5068325;28;20093;-69
2023/12/01 12:14:55;;;;;;;1.67;1.58;;;;;;;;;;5078607;28;20082;-67
2023/12/01 12:17:22;;;;;;;0.75;0.75;;;;;;;;;;5078354;28;20096;-67
2023/12/01 12:19:49;;;;;;;1.70;1.60;;;;;;;;;;5074794;28;20055;-67
2023/12/01 12:22:15;;;;;;;2.70;1.58;;;;;;;;;;5073891;28;20403;-66
2023/12/01 12:24:44;;;;;;;0.63;0.63;;;;;;;;;;5074477;28;20040;-67
2023/12/01 12:27:10;;;;;;;1.02;1.02;;;;;;;;;;5075560;28;20044;-67
2023/12/01 12:29:37;;;;;;;0.50;0.50;;;;;;;;;;5073472;28;20376;-67
2023/12/01 12:32:02;;;;;;;1.30;1.20;;;0.10;1.00;;;;;;5074782;28;20072;-67
2023/12/01 12:34:29;;;;;;;1.17;1.00;;;;;;;;;;5083479;28;20714;-68
2023/12/01 12:36:55;;;;;;;2.22;2.05;;;;;;;;;;5093321;28;20138;-67
2023/12/01 12:39:23;;;;;;;1.30;1.10;;;;;;;;;;5125847;27;20402;-67
2023/12/01 12:41:50;;;;;;;1.88;1.73;;;;;;;;;;5091999;28;20048;-69
2023/12/01 12:44:16;;;;;;;0.68;0.68;;;;;;;;;;5093107;28;20040;-67
2023/12/01 12:46:42;;;;;;;0.95;0.85;;;;;;;;;;5091999;28;20131;-67
2023/12/01 12:49:09;;;;;;;2.08;1.85;;;;;;;;;;5092993;28;20118;-66
2023/12/01 12:51:36;;;;;;;0.93;0.90;;;;;;;;;;5091814;28;20397;-69
2023/12/01 12:54:02;;;;;;;;;;;3.00;1.00;;;;;;5092816;28;20040;-67
2023/12/01 12:56:28;;;;;;;1.95;1.27;;;;;;;;;;5091220;28;19931;-66
2023/12/01 12:58:57;;;;;;;6.85;2.80;;;3.50;1.00;;;;;;5092244;28;20651;-66
2023/12/01 13:01:23;;;;;;;5.28;1.70;;;;;;;;;;5080824;28;20048;-67
2023/12/01 13:03:49;;;;;;;1.48;1.40;;;2.90;1.00;;;;;;5083081;28;20048;-66
2023/12/01 13:06:16;;;;;;;1.13;1.02;;;;;;;;;;5083732;28;20491;-66
2023/12/01 13:08:42;;;;;;;3.85;2.03;;;;;;;;;;5083149;28;20127;-68
2023/12/01 13:11:09;;;;;;;0.65;0.65;;;;;;;;;;5084817;28;20044;-71
2023/12/01 13:13:37;;;;;;;15.43;1.92;;;;;;;;;;5082414;28;20044;-66
2023/12/01 13:16:03;;;;;;;2.38;1.20;;;;;;;;;;5085422;28;20118;-66
2023/12/01 13:18:29;;;;;;;1.58;1.40;;;3.40;1.00;;;;;;5082695;28;20094;-66
2023/12/01 13:20:55;;;;;;;0.75;0.63;;;2.70;1.00;;;;;;5080516;28;20041;-66
2023/12/01 13:23:21;;;;;;;0.73;0.73;;;;;;;;;;5080542;28;20559;-65
2023/12/01 13:25:48;;;;;;;0.88;0.88;;;;;;;;;;5085888;28;20066;-66
2023/12/01 13:28:14;;;;;;;2.63;1.67;;;;;;;;;;5082214;28;20075;-66
2023/12/01 13:30:40;;;;;;;1.23;1.17;;;1.40;1.00;;;;;;5085142;28;20050;-66
2023/12/01 13:33:07;;;;;;;0.77;0.77;;;;;;;;;;5074494;28;20044;-66
2023/12/01 13:35:36;;;;;;;;;;;;;;;;;;5072071;28;20059;-67
2023/12/01 13:38:02;;;;;;;1.17;1.02;;;;;;;;;;5072309;28;19924;-66
2023/12/01 13:40:29;;;;;;;1.05;1.02;;;;;;;;;;5072140;28;20052;-69
2023/12/01 13:42:54;;;;;;;;;;;0.90;1.00;;;;;;5072798;28;20052;-66
2023/12/01 13:45:20;;;;;;;1.48;1.38;;;;;;;;;;5072566;28;20367;-66
2023/12/01 13:47:47;;;;;;;0.82;0.82;;;;;;;;;;5071952;28;20044;-66
2023/12/01 13:50:13;;;;;;;1.52;1.45;;;;;;;;;;5072297;28;20045;-66
2023/12/01 13:52:39;;;;;;;1.00;0.98;;;;;;;;;;5071971;28;20827;-66
2023/12/01 13:55:06;;;;;;;0.65;0.65;;;;;;;;;;5072112;28;20072;-66
2023/12/01 13:57:35;;;;;;;0.75;0.75;;;;;;;;;;5071906;28;20059;-66
2023/12/01 14:00:02;;;;;;;1.25;1.15;;;;;;;;;;5058728;28;20496;-66
2023/12/01 14:02:28;;;;;;;0.60;0.60;;;;;;;;;;5071527;28;20055;-66
2023/12/01 14:04:54;;;;;;;0.70;0.70;;;;;;;;;;5071093;28;20057;-66
2023/12/01 14:07:20;;;;;;;1.73;1.50;;;;;;;;;;5077577;28;20048;-67
2023/12/01 14:09:46;;;;;;;4.18;1.63;;;;;;;;;;5081172;28;20052;-66
2023/12/01 14:12:13;;;;;;;0.68;0.68;;;;;;;;;;5086334;28;20048;-70
2023/12/01 14:14:39;;;;;;;1.17;0.43;;;;;;;;;;5090415;28;20047;-69
2023/12/01 14:17:05;;;;;;;1.42;1.33;;;;;;;;;;5088933;28;20479;-66
2023/12/01 14:19:31;;;;;;;1.33;1.23;;;;;;;;;;5090107;28;20051;-67
2023/12/01 14:21:57;;;;;;;2.65;1.13;;;;;;;;;;5089376;28;20083;-70
2023/12/01 14:24:23;;;;;;;1.13;0.98;;;;;;;;;;5089328;28;20040;-71
2023/12/01 14:26:49;;;;;;;1.05;0.75;;;;;;;;;;5089225;28;20079;-66
2023/12/01 14:29:16;;;;;;;0.65;0.65;;;-0.20;1.00;;;;;;5090306;28;20039;-65
2023/12/01 14:31:42;;;;;;;1.90;1.55;;;;;;;;;;5088546;28;20079;-65
2023/12/01 14:34:08;;;;;;;;;;;0.00;1.00;;;;;;5078729;28;20056;-69
2023/12/01 14:36:34;;;;;;;11.50;3.13;;;;;;;;;;5089914;28;19924;-66
2023/12/01 14:39:00;;;;;;;2.42;2.05;;;;;;;;;;5090966;28;20044;-67
2023/12/01 14:41:26;;;;;;;0.60;0.60;;;;;;;;;;5089614;28;20048;-65